sensor_id;sensor_type;location;lat;lon;timestamp;pressure;altitude;pressure_sealevel;temperature;humidity
58761;BME280;44529;47.464;19.014;2022-07-12T00:01:36;100608.81;;;15.17;53.90
58761;BME280;44529;47.464;19.014;2022-07-12T00:04:44;100606.69;;;15.23;53.91
58761;BME280;44529;47.464;19.014;2022-07-12T00:07:47;100607.22;;;15.16;53.94
58761;BME280;44529;47.464;19.014;2022-07-12T00:10:49;100605.19;;;15.13;53.91
58761;BME280;44529;47.464;19.014;2022-07-12T00:13:52;100608.75;;;15.05;54.90
58761;BME280;44529;47.464;19.014;2022-07-12T00:16:54;100600.22;;;14.95;54.48
58761;BME280;44529;47.464;19.014;2022-07-12T00:19:56;100606.31;;;14.92;54.90
58761;BME280;44529;47.464;19.014;2022-07-12T00:22:59;100601.28;;;14.81;55.32
58761;BME280;44529;47.464;19.014;2022-07-12T00:26:02;100604.00;;;14.81;55.27
58761;BME280;44529;47.464;19.014;2022-07-12T00:29:06;100604.28;;;14.80;55.15
58761;BME280;44529;47.464;19.014;2022-07-12T00:32:08;100600.69;;;14.67;55.56
58761;BME280;44529;47.464;19.014;2022-07-12T00:35:11;100595.88;;;14.73;55.59
58761;BME280;44529;47.464;19.014;2022-07-12T00:38:14;100600.31;;;14.77;55.60
58761;BME280;44529;47.464;19.014;2022-07-12T00:41:16;100601.28;;;14.81;55.36
58761;BME280;44529;47.464;19.014;2022-07-12T00:44:18;100607.28;;;14.66;56.13
58761;BME280;44529;47.464;19.014;2022-07-12T00:47:39;100610.50;;;14.59;56.27
58761;BME280;44529;47.464;19.014;2022-07-12T00:50:46;100603.56;;;14.71;55.81
58761;BME280;44529;47.464;19.014;2022-07-12T00:53:50;100608.47;;;14.56;56.80
58761;BME280;44529;47.464;19.014;2022-07-12T00:56:53;100611.41;;;14.43;56.59
58761;BME280;44529;47.464;19.014;2022-07-12T00:59:56;100620.19;;;14.40;57.02
58761;BME280;44529;47.464;19.014;2022-07-12T01:03:01;100621.50;;;14.33;57.12
58761;BME280;44529;47.464;19.014;2022-07-12T01:06:04;100616.25;;;14.28;57.20
58761;BME280;44529;47.464;19.014;2022-07-12T01:09:08;100627.78;;;14.25;57.38
58761;BME280;44529;47.464;19.014;2022-07-12T01:12:11;100627.31;;;14.23;57.57
58761;BME280;44529;47.464;19.014;2022-07-12T01:15:13;100624.19;;;14.04;58.43
58761;BME280;44529;47.464;19.014;2022-07-12T01:18:16;100621.09;;;14.14;58.70
58761;BME280;44529;47.464;19.014;2022-07-12T01:21:22;100615.38;;;14.07;58.45
58761;BME280;44529;47.464;19.014;2022-07-12T01:24:24;100614.41;;;14.12;58.59
58761;BME280;44529;47.464;19.014;2022-07-12T01:27:27;100606.09;;;14.08;58.91
58761;BME280;44529;47.464;19.014;2022-07-12T01:30:30;100606.59;;;14.01;58.72
58761;BME280;44529;47.464;19.014;2022-07-12T01:33:32;100594.81;;;13.89;59.86
58761;BME280;44529;47.464;19.014;2022-07-12T01:36:36;100597.34;;;13.94;59.03
58761;BME280;44529;47.464;19.014;2022-07-12T01:39:39;100596.84;;;14.00;58.76
58761;BME280;44529;47.464;19.014;2022-07-12T01:42:42;100601.03;;;13.98;59.20
58761;BME280;44529;47.464;19.014;2022-07-12T01:45:46;100600.19;;;13.97;59.32
58761;BME280;44529;47.464;19.014;2022-07-12T01:48:48;100590.16;;;13.98;59.41
58761;BME280;44529;47.464;19.014;2022-07-12T01:51:50;100589.03;;;13.99;59.78
58761;BME280;44529;47.464;19.014;2022-07-12T01:54:53;100587.44;;;13.98;59.52
58761;BME280;44529;47.464;19.014;2022-07-12T01:57:56;100583.75;;;13.94;59.99
58761;BME280;44529;47.464;19.014;2022-07-12T02:00:58;100580.13;;;13.81;60.16
58761;BME280;44529;47.464;19.014;2022-07-12T02:04:04;100579.16;;;13.86;59.99
58761;BME280;44529;47.464;19.014;2022-07-12T02:07:07;100576.47;;;13.68;61.02
58761;BME280;44529;47.464;19.014;2022-07-12T02:10:09;100578.25;;;13.64;60.92
58761;BME280;44529;47.464;19.014;2022-07-12T02:13:11;100572.34;;;13.62;60.99
58761;BME280;44529;47.464;19.014;2022-07-12T02:16:14;100574.59;;;13.60;61.27
58761;BME280;44529;47.464;19.014;2022-07-12T02:19:16;100579.37;;;13.63;61.35
58761;BME280;44529;47.464;19.014;2022-07-12T02:22:18;100577.06;;;13.82;61.03
58761;BME280;44529;47.464;19.014;2022-07-12T02:25:21;100579.06;;;14.03;60.68
58761;BME280;44529;47.464;19.014;2022-07-12T02:28:24;100579.09;;;14.32;59.78
58761;BME280;44529;47.464;19.014;2022-07-12T02:31:27;100582.31;;;14.64;58.50
58761;BME280;44529;47.464;19.014;2022-07-12T02:34:29;100583.06;;;14.94;57.37
58761;BME280;44529;47.464;19.014;2022-07-12T02:37:32;100586.44;;;15.12;56.97
58761;BME280;44529;47.464;19.014;2022-07-12T02:40:42;100588.22;;;15.29;57.04
58761;BME280;44529;47.464;19.014;2022-07-12T02:44:04;100583.16;;;15.39;56.52
58761;BME280;44529;47.464;19.014;2022-07-12T02:47:07;100588.31;;;15.53;56.46
58761;BME280;44529;47.464;19.014;2022-07-12T02:50:09;100586.37;;;15.21;56.81
58761;BME280;44529;47.464;19.014;2022-07-12T02:53:12;100596.87;;;14.89;57.63
58761;BME280;44529;47.464;19.014;2022-07-12T02:56:14;100593.66;;;14.66;58.26
58761;BME280;44529;47.464;19.014;2022-07-12T02:59:16;100595.94;;;14.64;58.37
58761;BME280;44529;47.464;19.014;2022-07-12T03:02:19;100604.03;;;14.73;58.80
58761;BME280;44529;47.464;19.014;2022-07-12T03:05:21;100593.22;;;14.85;58.36
58761;BME280;44529;47.464;19.014;2022-07-12T03:08:35;100601.06;;;15.07;57.95
58761;BME280;44529;47.464;19.014;2022-07-12T03:11:37;100600.56;;;15.26;57.35
58761;BME280;44529;47.464;19.014;2022-07-12T03:14:39;100600.41;;;15.43;56.64
58761;BME280;44529;47.464;19.014;2022-07-12T03:17:41;100603.31;;;15.59;56.01
58761;BME280;44529;47.464;19.014;2022-07-12T03:20:44;100605.78;;;15.73;56.22
58761;BME280;44529;47.464;19.014;2022-07-12T03:23:46;100601.50;;;15.84;55.39
58761;BME280;44529;47.464;19.014;2022-07-12T03:26:49;100604.91;;;15.93;55.26
58761;BME280;44529;47.464;19.014;2022-07-12T03:29:51;100610.94;;;15.99;55.11
58761;BME280;44529;47.464;19.014;2022-07-12T03:32:54;100613.09;;;16.06;55.01
58761;BME280;44529;47.464;19.014;2022-07-12T03:35:57;100617.66;;;16.14;55.27
58761;BME280;44529;47.464;19.014;2022-07-12T03:38:59;100611.62;;;16.20;55.62
58761;BME280;44529;47.464;19.014;2022-07-12T03:42:02;100616.87;;;16.25;55.13
58761;BME280;44529;47.464;19.014;2022-07-12T03:45:04;100614.94;;;16.26;55.24
58761;BME280;44529;47.464;19.014;2022-07-12T03:48:07;100615.72;;;16.27;54.69
58761;BME280;44529;47.464;19.014;2022-07-12T03:51:10;100611.41;;;16.38;54.80
58761;BME280;44529;47.464;19.014;2022-07-12T03:54:12;100614.00;;;16.10;55.37
58761;BME280;44529;47.464;19.014;2022-07-12T03:57:15;100610.28;;;15.69;56.26
58761;BME280;44529;47.464;19.014;2022-07-12T04:00:17;100620.88;;;15.50;56.68
58761;BME280;44529;47.464;19.014;2022-07-12T04:03:19;100620.50;;;15.18;57.88
58761;BME280;44529;47.464;19.014;2022-07-12T04:06:21;100622.31;;;15.14;58.17
58761;BME280;44529;47.464;19.014;2022-07-12T04:09:24;100612.97;;;15.03;58.42
58761;BME280;44529;47.464;19.014;2022-07-12T04:12:26;100621.31;;;14.98;59.28
58761;BME280;44529;47.464;19.014;2022-07-12T04:15:28;100619.28;;;14.95;59.79
58761;BME280;44529;47.464;19.014;2022-07-12T04:18:31;100618.22;;;15.08;59.24
58761;BME280;44529;47.464;19.014;2022-07-12T04:21:35;100623.75;;;15.32;58.51
58761;BME280;44529;47.464;19.014;2022-07-12T04:24:38;100622.47;;;15.51;58.03
58761;BME280;44529;47.464;19.014;2022-07-12T04:27:40;100631.69;;;15.79;56.91
58761;BME280;44529;47.464;19.014;2022-07-12T04:30:42;100622.66;;;16.00;56.24
58761;BME280;44529;47.464;19.014;2022-07-12T04:33:46;100636.09;;;16.17;55.96
58761;BME280;44529;47.464;19.014;2022-07-12T04:36:48;100627.88;;;16.29;55.74
58761;BME280;44529;47.464;19.014;2022-07-12T04:39:51;100632.91;;;16.39;55.63
58761;BME280;44529;47.464;19.014;2022-07-12T04:42:53;100637.69;;;16.55;54.95
58761;BME280;44529;47.464;19.014;2022-07-12T04:46:05;100630.84;;;16.61;54.55
58761;BME280;44529;47.464;19.014;2022-07-12T04:49:07;100624.25;;;16.74;54.02
58761;BME280;44529;47.464;19.014;2022-07-12T04:52:09;100624.50;;;16.81;53.95
58761;BME280;44529;47.464;19.014;2022-07-12T04:55:11;100640.63;;;16.98;53.08
58761;BME280;44529;47.464;19.014;2022-07-12T04:58:14;100620.66;;;17.10;52.10
58761;BME280;44529;47.464;19.014;2022-07-12T05:01:16;100628.19;;;17.13;51.98
58761;BME280;44529;47.464;19.014;2022-07-12T05:04:19;100628.72;;;17.19;52.05
58761;BME280;44529;47.464;19.014;2022-07-12T05:07:21;100621.78;;;17.21;52.61
58761;BME280;44529;47.464;19.014;2022-07-12T05:10:23;100632.72;;;17.21;53.04
58761;BME280;44529;47.464;19.014;2022-07-12T05:13:26;100632.38;;;17.23;53.47
58761;BME280;44529;47.464;19.014;2022-07-12T05:16:28;100642.06;;;17.20;59.00
58761;BME280;44529;47.464;19.014;2022-07-12T05:19:31;100638.78;;;17.15;55.90
58761;BME280;44529;47.464;19.014;2022-07-12T05:22:33;100640.34;;;17.16;57.98
58761;BME280;44529;47.464;19.014;2022-07-12T05:25:35;100641.72;;;17.22;56.14
58761;BME280;44529;47.464;19.014;2022-07-12T05:28:40;100637.25;;;17.29;54.16
58761;BME280;44529;47.464;19.014;2022-07-12T05:31:42;100639.38;;;17.36;55.16
58761;BME280;44529;47.464;19.014;2022-07-12T05:34:44;100648.28;;;17.33;54.70
58761;BME280;44529;47.464;19.014;2022-07-12T05:37:46;100646.22;;;17.30;56.22
58761;BME280;44529;47.464;19.014;2022-07-12T05:40:49;100639.38;;;17.36;54.66
58761;BME280;44529;47.464;19.014;2022-07-12T05:43:51;100641.06;;;17.41;55.81
58761;BME280;44529;47.464;19.014;2022-07-12T05:46:53;100642.22;;;17.40;57.66
58761;BME280;44529;47.464;19.014;2022-07-12T05:49:55;100637.31;;;17.45;54.12
58761;BME280;44529;47.464;19.014;2022-07-12T05:52:58;100647.37;;;17.57;53.16
58761;BME280;44529;47.464;19.014;2022-07-12T05:56:18;100651.06;;;17.77;51.74
58761;BME280;44529;47.464;19.014;2022-07-12T05:59:21;100638.22;;;17.93;52.41
58761;BME280;44529;47.464;19.014;2022-07-12T06:02:23;100638.59;;;17.92;51.69
58761;BME280;44529;47.464;19.014;2022-07-12T06:05:30;100650.25;;;18.04;51.33
58761;BME280;44529;47.464;19.014;2022-07-12T06:08:32;100644.88;;;18.24;50.29
58761;BME280;44529;47.464;19.014;2022-07-12T06:11:34;100642.56;;;18.26;50.64
58761;BME280;44529;47.464;19.014;2022-07-12T06:14:36;100636.00;;;18.46;49.29
58761;BME280;44529;47.464;19.014;2022-07-12T06:17:39;100630.81;;;18.57;49.86
58761;BME280;44529;47.464;19.014;2022-07-12T06:20:41;100637.16;;;18.77;48.96
58761;BME280;44529;47.464;19.014;2022-07-12T06:23:43;100633.66;;;18.96;48.06
58761;BME280;44529;47.464;19.014;2022-07-12T06:26:46;100639.84;;;18.92;48.25
58761;BME280;44529;47.464;19.014;2022-07-12T06:29:48;100634.72;;;18.91;50.21
58761;BME280;44529;47.464;19.014;2022-07-12T06:32:50;100630.28;;;19.02;48.66
58761;BME280;44529;47.464;19.014;2022-07-12T06:35:53;100636.06;;;19.16;47.60
58761;BME280;44529;47.464;19.014;2022-07-12T06:38:55;100648.59;;;19.37;46.22
58761;BME280;44529;47.464;19.014;2022-07-12T06:41:58;100647.75;;;19.52;45.95
58761;BME280;44529;47.464;19.014;2022-07-12T06:45:09;100651.00;;;19.58;45.39
58761;BME280;44529;47.464;19.014;2022-07-12T06:48:12;100647.19;;;19.62;45.47
58761;BME280;44529;47.464;19.014;2022-07-12T06:51:14;100651.97;;;19.65;46.55
58761;BME280;44529;47.464;19.014;2022-07-12T06:54:16;100641.41;;;19.67;45.10
58761;BME280;44529;47.464;19.014;2022-07-12T06:57:18;100638.88;;;19.78;45.41
58761;BME280;44529;47.464;19.014;2022-07-12T07:00:21;100644.41;;;19.82;45.29
58761;BME280;44529;47.464;19.014;2022-07-12T07:03:23;100640.97;;;19.85;45.29
58761;BME280;44529;47.464;19.014;2022-07-12T07:06:26;100642.97;;;19.88;44.04
58761;BME280;44529;47.464;19.014;2022-07-12T07:09:28;100643.44;;;19.93;45.25
58761;BME280;44529;47.464;19.014;2022-07-12T07:12:30;100656.09;;;19.98;44.52
58761;BME280;44529;47.464;19.014;2022-07-12T07:15:32;100645.16;;;20.01;45.07
58761;BME280;44529;47.464;19.014;2022-07-12T07:18:35;100637.37;;;20.04;44.07
58761;BME280;44529;47.464;19.014;2022-07-12T07:21:37;100630.09;;;19.92;44.26
58761;BME280;44529;47.464;19.014;2022-07-12T07:24:40;100638.03;;;19.97;45.39
58761;BME280;44529;47.464;19.014;2022-07-12T07:27:42;100645.94;;;20.02;46.29
58761;BME280;44529;47.464;19.014;2022-07-12T07:30:46;100638.41;;;20.18;43.31
58761;BME280;44529;47.464;19.014;2022-07-12T07:33:54;100638.25;;;20.34;42.70
58761;BME280;44529;47.464;19.014;2022-07-12T07:36:57;100644.84;;;20.52;42.64
58761;BME280;44529;47.464;19.014;2022-07-12T07:39:59;100643.66;;;20.76;41.96
58761;BME280;44529;47.464;19.014;2022-07-12T07:43:01;100644.22;;;20.89;41.73
58761;BME280;44529;47.464;19.014;2022-07-12T07:46:03;100637.03;;;21.11;42.40
58761;BME280;44529;47.464;19.014;2022-07-12T07:49:06;100635.09;;;21.42;40.77
58761;BME280;44529;47.464;19.014;2022-07-12T07:52:08;100637.44;;;21.40;40.84
58761;BME280;44529;47.464;19.014;2022-07-12T07:55:11;100634.41;;;21.85;39.66
58761;BME280;44529;47.464;19.014;2022-07-12T07:58:14;100635.53;;;22.22;38.91
58761;BME280;44529;47.464;19.014;2022-07-12T08:01:17;100641.16;;;21.92;38.67
58761;BME280;44529;47.464;19.014;2022-07-12T08:04:21;100644.19;;;21.83;39.15
58761;BME280;44529;47.464;19.014;2022-07-12T08:07:31;100637.25;;;21.96;39.43
58761;BME280;44529;47.464;19.014;2022-07-12T08:10:54;100640.41;;;21.98;39.26
58761;BME280;44529;47.464;19.014;2022-07-12T08:13:56;100641.34;;;21.72;39.44
58761;BME280;44529;47.464;19.014;2022-07-12T08:16:58;100647.84;;;21.57;39.46
58761;BME280;44529;47.464;19.014;2022-07-12T08:20:00;100643.84;;;21.51;39.85
58761;BME280;44529;47.464;19.014;2022-07-12T08:23:25;100650.53;;;21.50;40.24
58761;BME280;44529;47.464;19.014;2022-07-12T08:26:27;100637.94;;;21.86;39.15
58761;BME280;44529;47.464;19.014;2022-07-12T08:29:30;100634.88;;;22.35;38.54
58761;BME280;44529;47.464;19.014;2022-07-12T08:32:32;100639.72;;;23.18;36.68
58761;BME280;44529;47.464;19.014;2022-07-12T08:35:34;100632.09;;;24.06;36.29
58761;BME280;44529;47.464;19.014;2022-07-12T08:38:38;100644.34;;;24.58;33.67
58761;BME280;44529;47.464;19.014;2022-07-12T08:41:40;100632.03;;;24.88;32.51
58761;BME280;44529;47.464;19.014;2022-07-12T08:44:43;100625.62;;;25.23;32.99
58761;BME280;44529;47.464;19.014;2022-07-12T08:47:45;100626.59;;;25.61;33.19
58761;BME280;44529;47.464;19.014;2022-07-12T08:51:06;100612.63;;;25.86;31.98
58761;BME280;44529;47.464;19.014;2022-07-12T08:54:10;100618.19;;;26.31;31.00
58761;BME280;44529;47.464;19.014;2022-07-12T08:57:27;100627.31;;;25.80;31.65
58761;BME280;44529;47.464;19.014;2022-07-12T09:00:31;100614.59;;;25.12;33.49
58761;BME280;44529;47.464;19.014;2022-07-12T09:03:33;100615.50;;;24.70;33.44
58761;BME280;44529;47.464;19.014;2022-07-12T09:06:36;100624.56;;;24.71;33.77
58761;BME280;44529;47.464;19.014;2022-07-12T09:09:38;100625.22;;;25.21;34.20
58761;BME280;44529;47.464;19.014;2022-07-12T09:12:42;100628.88;;;24.90;34.39
58761;BME280;44529;47.464;19.014;2022-07-12T09:15:48;100628.72;;;25.36;32.79
58761;BME280;44529;47.464;19.014;2022-07-12T09:22:14;100626.47;;;25.09;32.10
58761;BME280;44529;47.464;19.014;2022-07-12T09:25:21;100616.66;;;25.75;31.75
58761;BME280;44529;47.464;19.014;2022-07-12T09:28:23;100628.41;;;25.97;31.32
58761;BME280;44529;47.464;19.014;2022-07-12T09:31:41;100616.87;;;26.50;30.15
58761;BME280;44529;47.464;19.014;2022-07-12T09:35:04;100620.09;;;26.83;29.24
58761;BME280;44529;47.464;19.014;2022-07-12T09:38:26;100625.81;;;27.06;29.69
58761;BME280;44529;47.464;19.014;2022-07-12T09:41:35;100617.13;;;26.22;29.93
58761;BME280;44529;47.464;19.014;2022-07-12T09:44:45;100623.87;;;26.17;29.44
58761;BME280;44529;47.464;19.014;2022-07-12T09:47:48;100614.34;;;26.66;29.56
58761;BME280;44529;47.464;19.014;2022-07-12T09:50:52;100606.19;;;26.00;29.78
58761;BME280;44529;47.464;19.014;2022-07-12T09:53:56;100631.22;;;25.09;31.26
58761;BME280;44529;47.464;19.014;2022-07-12T09:57:03;100606.81;;;24.68;31.55
58761;BME280;44529;47.464;19.014;2022-07-12T10:00:06;100626.94;;;24.72;31.91
58761;BME280;44529;47.464;19.014;2022-07-12T10:03:12;100606.94;;;25.42;29.81
58761;BME280;44529;47.464;19.014;2022-07-12T10:06:29;100605.75;;;26.02;29.89
58761;BME280;44529;47.464;19.014;2022-07-12T10:09:37;100597.22;;;26.30;29.99
58761;BME280;44529;47.464;19.014;2022-07-12T10:12:46;100601.41;;;26.04;29.95
58761;BME280;44529;47.464;19.014;2022-07-12T10:15:49;100601.59;;;25.79;29.39
58761;BME280;44529;47.464;19.014;2022-07-12T10:19:20;100620.66;;;25.63;29.72
58761;BME280;44529;47.464;19.014;2022-07-12T10:22:23;100596.66;;;25.42;29.37
58761;BME280;44529;47.464;19.014;2022-07-12T10:31:56;100577.03;;;25.81;29.57
58761;BME280;44529;47.464;19.014;2022-07-12T10:35:00;100596.47;;;25.78;29.26
58761;BME280;44529;47.464;19.014;2022-07-12T10:38:15;100584.62;;;25.74;29.50
58761;BME280;44529;47.464;19.014;2022-07-12T10:41:20;100579.66;;;26.03;29.13
58761;BME280;44529;47.464;19.014;2022-07-12T10:44:50;100569.00;;;25.98;28.97
58761;BME280;44529;47.464;19.014;2022-07-12T10:47:56;100578.69;;;25.68;30.50
58761;BME280;44529;47.464;19.014;2022-07-12T10:50:58;100569.97;;;25.70;30.36
58761;BME280;44529;47.464;19.014;2022-07-12T10:54:19;100581.44;;;25.68;30.33
58761;BME280;44529;47.464;19.014;2022-07-12T10:57:43;100591.78;;;25.60;30.00
58761;BME280;44529;47.464;19.014;2022-07-12T11:00:46;100620.53;;;25.00;32.80
58761;BME280;44529;47.464;19.014;2022-07-12T11:04:07;100626.19;;;24.22;36.81
58761;BME280;44529;47.464;19.014;2022-07-12T11:07:09;100649.19;;;23.14;41.22
58761;BME280;44529;47.464;19.014;2022-07-12T11:10:12;100633.94;;;22.72;40.77
58761;BME280;44529;47.464;19.014;2022-07-12T11:13:22;100628.59;;;22.38;41.43
58761;BME280;44529;47.464;19.014;2022-07-12T11:16:28;100628.13;;;22.29;41.61
58761;BME280;44529;47.464;19.014;2022-07-12T11:19:32;100623.31;;;22.19;42.63
58761;BME280;44529;47.464;19.014;2022-07-12T11:22:37;100617.38;;;22.13;43.13
58761;BME280;44529;47.464;19.014;2022-07-12T11:25:46;100613.44;;;22.14;43.57
58761;BME280;44529;47.464;19.014;2022-07-12T11:28:57;100609.87;;;22.14;45.20
58761;BME280;44529;47.464;19.014;2022-07-12T11:32:04;100601.62;;;22.10;46.39
58761;BME280;44529;47.464;19.014;2022-07-12T11:35:23;100602.09;;;22.23;45.37
58761;BME280;44529;47.464;19.014;2022-07-12T11:38:28;100586.13;;;22.47;45.57
58761;BME280;44529;47.464;19.014;2022-07-12T11:41:38;100590.00;;;23.01;42.87
58761;BME280;44529;47.464;19.014;2022-07-12T11:44:50;100582.31;;;23.60;39.38
58761;BME280;44529;47.464;19.014;2022-07-12T11:47:53;100567.75;;;24.16;39.47
58761;BME280;44529;47.464;19.014;2022-07-12T11:50:55;100563.41;;;24.40;38.89
58761;BME280;44529;47.464;19.014;2022-07-12T11:53:58;100564.19;;;24.34;38.30
58761;BME280;44529;47.464;19.014;2022-07-12T11:57:09;100561.84;;;24.18;36.00
58761;BME280;44529;47.464;19.014;2022-07-12T12:00:21;100560.25;;;24.24;34.47
58761;BME280;44529;47.464;19.014;2022-07-12T12:03:25;100549.16;;;24.27;32.85
58761;BME280;44529;47.464;19.014;2022-07-12T12:06:30;100546.44;;;24.17;32.24
58761;BME280;44529;47.464;19.014;2022-07-12T12:10:05;100565.78;;;24.13;32.66
58761;BME280;44529;47.464;19.014;2022-07-12T12:13:17;100552.75;;;24.24;32.41
58761;BME280;44529;47.464;19.014;2022-07-12T12:16:20;100553.09;;;24.51;31.41
58761;BME280;44529;47.464;19.014;2022-07-12T12:19:22;100553.84;;;24.70;30.73
58761;BME280;44529;47.464;19.014;2022-07-12T12:22:33;100554.66;;;24.74;31.05
58761;BME280;44529;47.464;19.014;2022-07-12T12:25:43;100541.59;;;24.71;31.24
58761;BME280;44529;47.464;19.014;2022-07-12T12:28:47;100534.09;;;24.75;31.22
58761;BME280;44529;47.464;19.014;2022-07-12T12:31:57;100538.06;;;24.67;30.67
58761;BME280;44529;47.464;19.014;2022-07-12T12:35:07;100532.44;;;24.84;30.92
58761;BME280;44529;47.464;19.014;2022-07-12T12:38:13;100537.03;;;25.27;29.87
58761;BME280;44529;47.464;19.014;2022-07-12T12:41:16;100517.12;;;25.43;28.78
58761;BME280;44529;47.464;19.014;2022-07-12T12:44:19;100520.31;;;25.41;28.82
58761;BME280;44529;47.464;19.014;2022-07-12T12:47:22;100520.62;;;25.50;29.23
58761;BME280;44529;47.464;19.014;2022-07-12T12:53:41;100526.94;;;26.06;29.32
58761;BME280;44529;47.464;19.014;2022-07-12T12:56:43;100520.72;;;25.95;29.41
58761;BME280;44529;47.464;19.014;2022-07-12T12:59:46;100521.34;;;25.61;29.54
58761;BME280;44529;47.464;19.014;2022-07-12T13:02:48;100519.16;;;25.38;30.19
58761;BME280;44529;47.464;19.014;2022-07-12T13:05:52;100525.22;;;25.16;29.14
58761;BME280;44529;47.464;19.014;2022-07-12T13:08:54;100510.69;;;24.90;28.59
58761;BME280;44529;47.464;19.014;2022-07-12T13:11:58;100512.63;;;25.07;28.23
58761;BME280;44529;47.464;19.014;2022-07-12T13:15:00;100504.13;;;25.39;27.79
58761;BME280;44529;47.464;19.014;2022-07-12T13:18:04;100495.59;;;25.68;27.08
58761;BME280;44529;47.464;19.014;2022-07-12T13:21:06;100500.19;;;25.89;27.31
58761;BME280;44529;47.464;19.014;2022-07-12T13:24:09;100518.34;;;25.97;26.60
58761;BME280;44529;47.464;19.014;2022-07-12T13:27:11;100505.06;;;25.74;25.36
58761;BME280;44529;47.464;19.014;2022-07-12T13:30:15;100516.09;;;25.81;26.20
58761;BME280;44529;47.464;19.014;2022-07-12T13:33:17;100517.63;;;25.86;25.37
58761;BME280;44529;47.464;19.014;2022-07-12T13:36:20;100504.97;;;25.85;25.96
58761;BME280;44529;47.464;19.014;2022-07-12T13:39:23;100494.69;;;25.85;26.33
58761;BME280;44529;47.464;19.014;2022-07-12T13:42:46;100498.66;;;25.84;25.78
58761;BME280;44529;47.464;19.014;2022-07-12T13:45:50;100501.84;;;25.83;26.31
58761;BME280;44529;47.464;19.014;2022-07-12T13:48:53;100509.25;;;25.93;25.25
58761;BME280;44529;47.464;19.014;2022-07-12T13:51:55;100521.16;;;25.90;25.51
58761;BME280;44529;47.464;19.014;2022-07-12T13:54:58;100488.78;;;25.83;26.16
58761;BME280;44529;47.464;19.014;2022-07-12T13:58:00;100485.44;;;25.99;26.49
58761;BME280;44529;47.464;19.014;2022-07-12T14:01:03;100485.78;;;26.05;24.80
58761;BME280;44529;47.464;19.014;2022-07-12T14:04:05;100481.88;;;26.02;24.80
58761;BME280;44529;47.464;19.014;2022-07-12T14:07:08;100495.38;;;25.97;24.09
58761;BME280;44529;47.464;19.014;2022-07-12T14:10:11;100481.88;;;25.99;24.43
58761;BME280;44529;47.464;19.014;2022-07-12T14:13:16;100487.28;;;26.13;24.86
58761;BME280;44529;47.464;19.014;2022-07-12T14:16:19;100479.75;;;26.13;24.86
58761;BME280;44529;47.464;19.014;2022-07-12T14:19:22;100477.75;;;26.14;25.08
58761;BME280;44529;47.464;19.014;2022-07-12T14:22:25;100488.03;;;26.17;24.41
58761;BME280;44529;47.464;19.014;2022-07-12T14:25:28;100479.81;;;26.06;24.84
58761;BME280;44529;47.464;19.014;2022-07-12T14:28:30;100475.78;;;25.73;25.90
58761;BME280;44529;47.464;19.014;2022-07-12T14:31:32;100477.81;;;25.62;25.63
58761;BME280;44529;47.464;19.014;2022-07-12T14:34:35;100478.66;;;25.59;25.98
58761;BME280;44529;47.464;19.014;2022-07-12T14:37:38;100494.63;;;25.41;25.86
58761;BME280;44529;47.464;19.014;2022-07-12T14:40:41;100476.88;;;25.31;26.20
58761;BME280;44529;47.464;19.014;2022-07-12T14:43:43;100480.44;;;25.31;26.20
58761;BME280;44529;47.464;19.014;2022-07-12T14:46:46;100474.44;;;25.40;26.74
58761;BME280;44529;47.464;19.014;2022-07-12T14:49:48;100465.22;;;25.57;26.34
58761;BME280;44529;47.464;19.014;2022-07-12T14:52:51;100474.03;;;25.42;26.41
58761;BME280;44529;47.464;19.014;2022-07-12T14:55:54;100489.59;;;25.21;26.32
58761;BME280;44529;47.464;19.014;2022-07-12T14:58:56;100474.28;;;25.02;26.85
58761;BME280;44529;47.464;19.014;2022-07-12T15:01:59;100484.22;;;24.93;27.23
58761;BME280;44529;47.464;19.014;2022-07-12T15:05:02;100487.31;;;25.02;27.38
58761;BME280;44529;47.464;19.014;2022-07-12T15:08:08;100475.88;;;25.00;27.72
58761;BME280;44529;47.464;19.014;2022-07-12T15:11:10;100490.84;;;25.09;27.87
58761;BME280;44529;47.464;19.014;2022-07-12T15:14:12;100477.06;;;25.06;27.89
58761;BME280;44529;47.464;19.014;2022-07-12T15:17:15;100484.59;;;24.91;28.14
58761;BME280;44529;47.464;19.014;2022-07-12T15:20:19;100485.06;;;24.79;28.74
58761;BME280;44529;47.464;19.014;2022-07-12T15:23:21;100480.75;;;24.71;28.32
58761;BME280;44529;47.464;19.014;2022-07-12T15:26:24;100472.41;;;24.78;28.67
58761;BME280;44529;47.464;19.014;2022-07-12T15:29:26;100477.87;;;24.92;27.83
58761;BME280;44529;47.464;19.014;2022-07-12T15:32:28;100477.09;;;24.92;27.73
58761;BME280;44529;47.464;19.014;2022-07-12T15:35:31;100489.41;;;24.80;28.28
58761;BME280;44529;47.464;19.014;2022-07-12T15:38:33;100487.06;;;24.75;28.86
58761;BME280;44529;47.464;19.014;2022-07-12T15:41:36;100478.78;;;24.71;28.67
58761;BME280;44529;47.464;19.014;2022-07-12T15:44:38;100491.44;;;24.65;29.13
58761;BME280;44529;47.464;19.014;2022-07-12T15:47:40;100500.97;;;24.57;29.64
58761;BME280;44529;47.464;19.014;2022-07-12T15:50:43;100494.28;;;24.40;30.14
58761;BME280;44529;47.464;19.014;2022-07-12T15:53:45;100499.44;;;24.31;30.73
58761;BME280;44529;47.464;19.014;2022-07-12T15:56:48;100490.75;;;24.25;30.81
58761;BME280;44529;47.464;19.014;2022-07-12T15:59:58;100497.87;;;24.19;31.22
58761;BME280;44529;47.464;19.014;2022-07-12T16:03:00;100497.09;;;24.15;31.13
58761;BME280;44529;47.464;19.014;2022-07-12T16:06:03;100497.09;;;24.15;31.35